Time;durP1;ratioP1;P1;durP2;ratioP2;P2;SDS_P1;SDS_P2;PMS_P1;PMS_P2;Temp;Humidity;BMP_temperature;BMP_pressure;BME280_temperature;BME280_humidity;BME280_pressure;Samples;Min_cycle;Max_cycle;Signal;HPM_P1;HPM_P2
2023/06/23 00:00:55;;;;;;;1999.90;999.90;;;;;;;22.69;94.80;97777.19;4975215;28;20029;-69
2023/06/23 00:03:20;;;;;;;1999.90;999.90;;;;;;;22.74;95.42;97767.69;4977115;28;20035;-69
2023/06/23 00:05:45;;;;;;;1999.90;999.90;;;;;;;22.86;93.69;97764.66;4976480;28;20043;-69
2023/06/23 00:08:11;;;;;;;1999.90;999.90;;;;;;;22.84;94.39;97764.22;4974080;28;20527;-69
2023/06/23 00:10:36;;;;;;;1999.90;999.90;;;;;;;22.78;94.95;97760.97;4974245;28;20054;-69
2023/06/23 00:13:02;;;;;;;1999.90;999.90;;;;;;;22.74;96.09;97757.31;4956693;28;20377;-69
2023/06/23 00:15:28;;;;;;;1999.90;999.90;;;;;;;22.58;98.92;97739.16;4972790;28;20035;-69
2023/06/23 00:17:53;;;;;;;1999.90;999.90;;;;;;;22.57;99.88;97737.53;4973617;28;20369;-70
2023/06/23 00:20:19;;;;;;;1999.90;999.90;;;;;;;22.62;100.00;97745.56;4973812;28;20037;-70
2023/06/23 00:22:45;;;;;;;1999.90;999.90;;;;;;;22.63;100.00;97741.59;4973725;28;20026;-70
2023/06/23 00:25:12;;;;;;;1999.90;999.90;;;;;;;22.51;100.00;97739.06;4973615;28;20472;-70
2023/06/23 00:27:42;;;;;;;1999.90;999.90;;;;;;;22.19;100.00;97755.34;4956368;28;20026;-70
2023/06/23 00:30:08;;;;;;;1999.90;999.90;;;;;;;22.15;100.00;97755.28;4956647;28;20027;-69
2023/06/23 00:32:34;;;;;;;1999.90;999.90;;;;;;;22.11;100.00;97748.06;4975525;28;20086;-70
2023/06/23 00:35:00;;;;;;;1999.90;999.90;;;;;;;22.09;100.00;97751.22;4975986;28;20440;-69
2023/06/23 00:37:29;;;;;;;1999.90;999.90;;;;;;;22.26;100.00;97755.47;4973166;28;20047;-70
2023/06/23 00:39:54;;;;;;;1999.90;999.90;;;;;;;22.43;100.00;97749.31;4981416;28;20038;-69
2023/06/23 00:42:20;;;;;;;1999.90;999.90;;;;;;;22.51;100.00;97747.44;4975418;28;20019;-69
2023/06/23 00:44:46;;;;;;;1999.90;999.90;;;;;;;22.50;100.00;97751.38;4992936;28;20038;-70
2023/06/23 00:47:13;;;;;;;1999.90;999.90;;;;;;;22.42;100.00;97737.38;4993281;28;20030;-70
2023/06/23 00:49:39;;;;;;;1999.90;999.90;;;;;;;22.33;100.00;97741.63;4993273;28;20030;-70
2023/06/23 00:52:07;;;;;;;1999.90;999.90;;;;;;;22.27;100.00;97735.56;4993943;28;20042;-70
2023/06/23 00:54:34;;;;;;;1999.90;999.90;;;;;;;22.22;100.00;97724.75;4993681;28;20065;-70
2023/06/23 00:56:59;;;;;;;1999.90;999.90;;;;;;;22.24;100.00;97718.81;4975951;28;20033;-70
2023/06/23 00:59:28;;;;;;;1999.90;999.90;;;;;;;22.16;100.00;97720.69;4992796;28;20022;-70
2023/06/23 01:01:57;;;;;;;1999.90;999.90;;;;;;;22.09;100.00;97714.19;4992588;28;20144;-70
2023/06/23 01:04:22;;;;;;;1999.90;999.90;;;;;;;22.04;100.00;97714.53;4992806;28;20034;-70
2023/06/23 01:07:21;;;;;;;1999.90;999.90;;;;;;;21.98;100.00;97722.41;4992511;28;20045;-70
2023/06/23 01:09:57;;;;;;;1999.90;999.90;;;;;;;21.97;100.00;97709.66;4974790;28;20084;-70
2023/06/23 01:12:30;;;;;;;1999.90;999.90;;;;;;;21.96;100.00;97716.41;4974887;28;20207;-70
2023/06/23 01:15:20;;;;;;;1999.90;999.90;;;;;;;22.05;100.00;97716.97;4992185;28;20026;-70
2023/06/23 01:18:18;;;;;;;1999.90;999.90;;;;;;;21.92;100.00;97720.31;4974745;28;20387;-70
2023/06/23 01:20:46;;;;;;;1999.90;999.90;;;;;;;21.78;100.00;97718.09;4992240;28;20049;-70
2023/06/23 01:23:28;;;;;;;1999.90;999.90;;;;;;;21.78;100.00;97718.91;4992250;28;20499;-69
2023/06/23 01:26:25;;;;;;;1999.90;999.90;;;;;;;21.72;100.00;97719.59;4973863;28;20112;-70
2023/06/23 01:28:54;;;;;;;1999.90;999.90;;;;;;;21.66;100.00;97726.66;4991903;28;20026;-70
2023/06/23 01:31:25;;;;;;;1999.90;999.90;;;;;;;21.55;100.00;97720.13;4974363;28;20042;-70
2023/06/23 01:33:58;;;;;;;1999.90;999.90;;;;;;;21.48;100.00;97714.44;4992312;28;20030;-70
2023/06/23 01:36:41;;;;;;;1999.90;999.90;;;;;;;21.42;100.00;97716.72;4991723;28;20073;-70
2023/06/23 01:39:11;;;;;;;1999.90;999.90;;;;;;;21.44;100.00;97719.13;4991844;28;20081;-70
2023/06/23 01:41:46;;;;;;;1999.90;999.90;;;;;;;21.50;100.00;97714.84;4991719;28;20068;-70
2023/06/23 01:44:14;;;;;;;1999.90;999.90;;;;;;;21.59;100.00;97720.97;4974292;28;20387;-70
2023/06/23 01:46:44;;;;;;;1999.90;999.90;;;;;;;21.53;100.00;97716.88;4991698;28;20046;-69
2023/06/23 01:49:14;;;;;;;1999.90;999.90;;;;;;;21.50;100.00;97724.00;4991596;28;20544;-69
2023/06/23 01:51:48;;;;;;;1999.90;999.90;;;;;;;21.59;100.00;97718.19;4991408;28;20118;-70
2023/06/23 01:54:14;;;;;;;1999.90;999.90;;;;;;;21.67;100.00;97711.56;4991654;28;20121;-70
2023/06/23 01:56:42;;;;;;;1999.90;999.90;;;;;;;21.61;100.00;97715.84;4974250;28;20053;-70
2023/06/23 01:59:12;;;;;;;1999.90;999.90;;;;;;;21.52;100.00;97716.06;4996617;28;20026;-69
2023/06/23 02:01:39;;;;;;;1999.90;999.90;;;;;;;21.46;100.00;97716.78;5007005;28;20491;-71
2023/06/23 02:04:06;;;;;;;1999.90;999.90;;;;;;;21.44;100.00;97708.00;4977888;28;20058;-73
2023/06/23 02:06:36;;;;;;;1999.90;999.90;;;;;;;21.44;100.00;97719.13;4990320;28;20444;-74
2023/06/23 02:09:05;;;;;;;1999.90;999.90;;;;;;;21.48;100.00;97715.25;4991427;28;20022;-73
2023/06/23 02:11:32;;;;;;;1999.90;999.90;;;;;;;21.48;100.00;97715.25;4991893;28;20029;-74
2023/06/23 02:14:00;;;;;;;1999.90;999.90;;;;;;;21.48;100.00;97712.47;4994449;28;21080;-72
2023/06/23 02:16:27;;;;;;;1999.90;999.90;;;;;;;21.41;100.00;97706.75;4993339;28;20052;-73
2023/06/23 02:18:54;;;;;;;1999.90;999.90;;;;;;;21.45;100.00;97709.59;4960289;28;20511;-74
2023/06/23 02:21:24;;;;;;;1999.90;999.90;;;;;;;21.42;100.00;97724.28;4970633;28;20038;-74
2023/06/23 02:23:52;;;;;;;1999.90;999.90;;;;;;;21.42;100.00;97715.91;4971580;28;20035;-73
2023/06/23 02:26:18;;;;;;;1999.90;999.90;;;;;;;21.32;100.00;97717.34;4971501;28;20031;-73
2023/06/23 02:28:49;;;;;;;1999.90;999.90;;;;;;;21.16;100.00;97699.97;4971895;28;20031;-73
2023/06/23 02:31:20;;;;;;;1999.90;999.90;;;;;;;21.15;100.00;97707.50;4971693;28;20031;-73
2023/06/23 02:33:45;;;;;;;1999.90;999.90;;;;;;;21.09;100.00;97713.75;4972093;28;20027;-73
2023/06/23 02:36:11;;;;;;;1999.90;999.90;;;;;;;21.02;100.00;97699.69;4972519;28;20062;-74
2023/06/23 02:38:39;;;;;;;1999.90;999.90;;;;;;;21.00;100.00;97694.50;4973764;28;20081;-73
2023/06/23 02:41:08;;;;;;;1999.90;999.90;;;;;;;20.93;100.00;97699.09;4975612;28;20440;-73
2023/06/23 02:43:38;;;;;;;1999.90;999.90;;;;;;;20.90;100.00;97695.09;4975143;28;20019;-73
2023/06/23 02:46:08;;;;;;;1999.90;999.90;;;;;;;20.79;100.00;97702.44;4975779;28;20067;-73
2023/06/23 02:48:37;;;;;;;1999.90;999.90;;;;;;;20.68;100.00;97701.41;4976585;28;20062;-74
2023/06/23 02:51:05;;;;;;;1999.90;999.90;;;;;;;20.69;100.00;97689.13;4978043;28;20035;-73
2023/06/23 02:53:37;;;;;;;1999.90;999.90;;;;;;;20.70;100.00;97679.63;4976520;28;20484;-73
2023/06/23 02:56:10;;;;;;;1999.90;999.90;;;;;;;20.89;100.00;97687.94;4983583;28;20113;-73
2023/06/23 02:58:37;;;;;;;1999.90;999.90;;;;;;;20.90;100.00;97683.97;4994180;28;20034;-73
2023/06/23 03:01:05;;;;;;;1999.90;999.90;;;;;;;20.95;100.00;97692.03;4994173;28;20419;-73
2023/06/23 03:03:33;;;;;;;1999.90;999.90;;;;;;;20.98;100.00;97699.63;4994599;28;20372;-73
2023/06/23 03:05:59;;;;;;;1999.90;999.90;;;;;;;21.05;100.00;97702.50;4994511;28;20030;-73
2023/06/23 03:08:25;;;;;;;1999.90;999.90;;;;;;;21.03;100.00;97692.94;4994419;28;20037;-73
2023/06/23 03:10:51;;;;;;;1999.90;999.90;;;;;;;21.02;100.00;97692.13;4994160;28;20508;-73
2023/06/23 03:13:16;;;;;;;1999.90;999.90;;;;;;;21.06;100.00;97690.22;4994344;28;20042;-73
2023/06/23 03:15:42;;;;;;;1999.90;999.90;;;;;;;20.89;100.00;97685.16;4994101;28;20105;-73
2023/06/23 03:18:15;;;;;;;1999.90;999.90;;;;;;;20.76;100.00;97683.72;4992924;28;20426;-73
2023/06/23 03:20:48;;;;;;;1999.90;999.90;;;;;;;20.66;100.00;97678.75;4965308;28;20108;-73
2023/06/23 03:23:16;;;;;;;1999.90;999.90;;;;;;;20.54;100.00;97676.13;4976310;28;20014;-73
2023/06/23 03:25:46;;;;;;;1999.90;999.90;;;;;;;20.59;100.00;97679.41;4980958;28;20039;-72
2023/06/23 03:28:17;;;;;;;1999.90;999.90;;;;;;;20.68;100.00;97687.50;4974633;28;20035;-73
2023/06/23 03:30:47;;;;;;;1999.90;999.90;;;;;;;20.64;100.00;97681.09;4974459;28;20030;-73
2023/06/23 03:33:24;;;;;;;1999.90;999.90;;;;;;;20.59;100.00;97678.59;4974321;28;20113;-73
2023/06/23 03:35:52;;;;;;;1999.90;999.90;;;;;;;20.62;100.00;97667.56;4974434;28;20473;-72
2023/06/23 03:38:22;;;;;;;1999.90;999.90;;;;;;;20.67;100.00;97674.81;4934574;29;20489;-73
2023/06/23 03:41:10;;;;;;;1999.90;999.90;;;;;;;20.83;100.00;97667.16;4954972;28;20488;-73
2023/06/23 03:44:09;;;;;;;1999.90;999.90;;;;;;;21.00;100.00;97672.22;4954775;28;20039;-73
2023/06/23 03:46:43;;;;;;;1999.90;999.90;;;;;;;21.27;100.00;97682.28;4954970;28;20039;-73
2023/06/23 03:49:11;;;;;;;1999.90;999.90;;;;;;;21.48;100.00;97679.06;4954218;28;20039;-73
2023/06/23 03:51:40;;;;;;;1999.90;999.90;;;;;;;21.80;100.00;97693.47;4953389;28;20041;-73
2023/06/23 03:54:06;;;;;;;1999.90;999.90;;;;;;;22.03;100.00;97702.59;4954693;28;20456;-73
2023/06/23 03:56:34;;;;;;;1999.90;999.90;;;;;;;22.25;100.00;97695.31;4954416;28;20031;-73
2023/06/23 03:59:03;;;;;;;1999.90;999.90;;;;;;;22.47;100.00;97688.03;4954683;28;21535;-73
2023/06/23 04:01:30;;;;;;;1999.90;999.90;;;;;;;22.59;100.00;97704.50;4952963;28;20086;-73
2023/06/23 04:03:58;;;;;;;1999.90;999.90;;;;;;;22.73;99.81;97710.28;4954515;28;20023;-73
2023/06/23 04:06:26;;;;;;;1999.90;999.90;;;;;;;23.05;97.28;97714.25;4953386;28;20027;-73
2023/06/23 04:08:54;;;;;;;1999.90;999.90;;;;;;;23.10;96.31;97711.09;4954414;28;20031;-73
2023/06/23 04:11:22;;;;;;;1999.90;999.90;;;;;;;22.94;97.22;97705.75;4954356;28;20465;-73
2023/06/23 04:13:49;;;;;;;1999.90;999.90;;;;;;;23.37;94.92;97723.72;4963454;28;20078;-79
2023/06/23 04:16:16;;;;;;;1999.90;999.90;;;;;;;23.35;95.39;97720.50;4978514;28;20035;-80
2023/06/23 04:18:43;;;;;;;1999.90;999.90;;;;;;;23.73;92.64;97727.66;4980803;28;20101;-82
2023/06/23 04:21:10;;;;;;;1999.90;999.90;;;;;;;23.92;90.01;97721.00;4975095;28;20037;-80
2023/06/23 04:23:38;;;;;;;1999.90;999.90;;;;;;;23.74;90.45;97725.66;4978446;28;20118;-78
2023/06/23 04:26:07;;;;;;;1999.90;999.90;;;;;;;23.66;93.65;97727.59;4981361;28;20054;-78
2023/06/23 04:28:33;;;;;;;1999.90;999.90;;;;;;;23.53;93.93;97725.47;4975349;28;20031;-78
2023/06/23 04:31:03;;;;;;;1999.90;999.90;;;;;;;23.56;94.25;97730.28;4974455;28;20026;-80
2023/06/23 04:33:29;;;;;;;1999.90;999.90;;;;;;;23.61;94.23;97729.94;4966529;28;20082;-78
2023/06/23 04:36:01;;;;;;;1999.90;999.90;;;;;;;23.44;98.74;97728.59;4957335;28;20509;-79
2023/06/23 04:38:29;;;;;;;1999.90;999.90;;;;;;;23.17;100.00;97722.34;4994053;28;20026;-78
2023/06/23 04:40:58;;;;;;;1999.90;999.90;;;;;;;23.10;100.00;97718.66;4994209;28;20061;-79
2023/06/23 04:43:48;;;;;;;1999.90;999.90;;;;;;;22.99;100.00;97721.34;4993412;28;20545;-77
2023/06/23 04:46:19;;;;;;;1999.90;999.90;;;;;;;23.19;100.00;97721.94;5008635;28;20034;-81
2023/06/23 04:48:49;;;;;;;1999.90;999.90;;;;;;;23.37;100.00;97728.47;5011589;28;20095;-79
2023/06/23 04:51:17;;;;;;;1999.90;999.90;;;;;;;23.25;100.00;97735.16;5012855;28;20030;-72
2023/06/23 04:53:53;;;;;;;1999.90;999.90;;;;;;;23.32;100.00;97724.06;5011780;28;20033;-74
2023/06/23 04:56:22;;;;;;;1999.90;999.90;;;;;;;23.35;100.00;97728.88;5013936;28;20080;-81
2023/06/23 04:58:53;;;;;;;1999.90;999.90;;;;;;;23.48;100.00;97729.44;4993644;28;20034;-78
2023/06/23 05:01:20;;;;;;;1999.90;999.90;;;;;;;23.42;100.00;97733.75;4991540;28;20077;-75
2023/06/23 05:03:48;;;;;;;1999.90;999.90;;;;;;;23.62;100.00;97734.34;4992431;28;20080;-77
2023/06/23 05:06:17;;;;;;;1999.90;999.90;;;;;;;23.71;100.00;97748.78;4992813;28;20045;-75
2023/06/23 05:08:45;;;;;;;1999.90;999.90;;;;;;;23.56;100.00;97741.44;4995414;28;20033;-76
2023/06/23 05:11:12;;;;;;;1999.90;999.90;;;;;;;23.63;100.00;97728.34;4997055;28;20798;-74
2023/06/23 05:13:39;;;;;;;1999.90;999.90;;;;;;;23.85;100.00;97740.50;4994514;28;20123;-75
2023/06/23 05:16:10;;;;;;;1999.90;999.90;;;;;;;23.69;100.00;97735.19;4993882;28;20383;-79
2023/06/23 05:18:36;;;;;;;1999.90;999.90;;;;;;;23.74;100.00;97746.03;4993085;28;20029;-77
2023/06/23 05:21:04;;;;;;;1999.90;999.90;;;;;;;23.88;100.00;97745.31;4991725;28;20026;-75
2023/06/23 05:23:35;;;;;;;1999.90;999.90;;;;;;;23.91;100.00;97745.34;4991783;28;20026;-76
2023/06/23 05:26:02;;;;;;;1999.90;999.90;;;;;;;23.77;100.00;97741.66;4992167;28;20038;-78
2023/06/23 05:28:32;;;;;;;1999.90;999.90;;;;;;;23.67;100.00;97745.97;4991970;28;20030;-77
2023/06/23 05:31:00;;;;;;;1999.90;999.90;;;;;;;23.20;100.00;97741.09;4992113;28;20026;-74
2023/06/23 05:33:28;;;;;;;1999.90;999.90;;;;;;;23.76;100.00;97749.22;4991869;28;20042;-77
2023/06/23 05:35:54;;;;;;;1999.90;999.90;;;;;;;24.02;100.00;97747.41;4974579;28;20125;-74
2023/06/23 05:38:21;;;;;;;1999.90;999.90;;;;;;;24.05;100.00;97755.03;4991739;28;20080;-75
2023/06/23 05:40:47;;;;;;;1999.90;999.90;;;;;;;23.99;100.00;97754.59;4991747;28;20108;-75
2023/06/23 05:43:12;;;;;;;1999.90;999.90;;;;;;;24.15;100.00;97759.94;4991598;28;20030;-75
2023/06/23 05:45:38;;;;;;;1999.90;999.90;;;;;;;24.16;100.00;97751.13;4990956;28;20030;-76
2023/06/23 05:48:03;;;;;;;1999.90;999.90;;;;;;;24.38;100.00;97764.06;4990913;28;20032;-75
2023/06/23 05:50:34;;;;;;;1999.90;999.90;;;;;;;24.35;100.00;97764.84;4973632;28;20018;-77
2023/06/23 05:53:07;;;;;;;1999.90;999.90;;;;;;;24.38;100.00;97769.66;4991526;28;20480;-75
2023/06/23 05:55:44;;;;;;;1999.90;999.90;;;;;;;24.57;99.94;97762.97;4990864;28;20471;-76
2023/06/23 05:58:11;;;;;;;1999.90;999.90;;;;;;;24.86;97.08;97764.72;4991528;28;20034;-74
2023/06/23 06:00:42;;;;;;;1999.90;999.90;;;;;;;24.86;96.95;97761.13;4991458;28;20022;-75
2023/06/23 06:03:12;;;;;;;1999.90;999.90;;;;;;;25.05;98.46;97766.41;4973679;28;20026;-75
2023/06/23 06:05:39;;;;;;;1999.90;999.90;;;;;;;25.26;93.82;97758.06;4991593;28;20437;-74
2023/06/23 06:08:08;;;;;;;1999.90;999.90;;;;;;;25.49;93.18;97754.94;4973770;28;20066;-76
2023/06/23 06:10:36;;;;;;;1999.90;999.90;;;;;;;25.38;92.16;97760.47;4974059;28;20476;-76
2023/06/23 06:13:04;;;;;;;1999.90;999.90;;;;;;;25.58;89.43;97754.53;4991313;28;20058;-76
2023/06/23 06:15:31;;;;;;;1999.90;999.90;;;;;;;25.37;90.09;97746.88;4991568;28;20447;-75
2023/06/23 06:17:59;;;;;;;1999.90;999.90;;;;;;;25.53;90.33;97748.09;4991436;28;20068;-75
2023/06/23 06:20:27;;;;;;;1999.90;999.90;;;;;;;25.28;91.27;97744.44;4991429;28;20454;-74
2023/06/23 06:22:53;;;;;;;1999.90;999.90;;;;;;;25.80;89.01;97750.53;4991568;28;20034;-75
2023/06/23 06:25:20;;;;;;;1999.90;999.90;;;;;;;25.73;86.63;97739.31;4991577;28;20547;-75
2023/06/23 06:27:47;;;;;;;1999.90;999.90;;;;;;;25.71;86.66;97744.53;4991817;28;20472;-75
2023/06/23 06:30:16;;;;;;;1999.90;999.90;;;;;;;25.98;90.30;97743.72;4991901;28;20041;-77
2023/06/23 06:32:43;;;;;;;1999.90;999.90;;;;;;;26.14;86.12;97743.28;4991701;28;20400;-75
2023/06/23 06:35:10;;;;;;;1999.90;999.90;;;;;;;26.55;83.40;97755.66;4975099;28;20034;-74
2023/06/23 06:37:40;;;;;;;1999.90;999.90;;;;;;;26.70;82.01;97761.22;4997992;28;20129;-76
2023/06/23 06:40:06;;;;;;;1999.90;999.90;;;;;;;27.22;79.04;97760.22;4991096;28;20117;-75
2023/06/23 06:42:32;;;;;;;1999.90;999.90;;;;;;;26.80;78.71;97771.59;4973639;28;20391;-74
2023/06/23 06:44:58;;;;;;;1999.90;999.90;;;;;;;26.66;79.41;97766.84;4990878;28;20056;-75
2023/06/23 06:47:25;;;;;;;1999.90;999.90;;;;;;;26.63;80.13;97761.25;4990404;28;20049;-75
2023/06/23 06:49:52;;;;;;;1999.90;999.90;;;;;;;26.65;78.82;97756.84;4990861;28;20476;-73
2023/06/23 06:52:18;;;;;;;1999.90;999.90;;;;;;;26.78;76.78;97757.19;4991014;28;20026;-73
2023/06/23 06:54:45;;;;;;;1999.90;999.90;;;;;;;27.07;76.48;97753.06;4990787;28;20037;-75
2023/06/23 06:57:11;;;;;;;1999.90;999.90;;;;;;;27.53;74.37;97756.44;4990796;28;20042;-74
2023/06/23 06:59:36;;;;;;;1999.90;999.90;;;;;;;27.48;73.97;97744.81;4990812;28;20113;-75
2023/06/23 07:02:03;;;;;;;1999.90;999.90;;;;;;;27.64;72.53;97745.09;4973103;28;20068;-74
2023/06/23 07:04:29;;;;;;;1999.90;999.90;;;;;;;27.73;70.53;97739.81;4973152;28;20038;-74
2023/06/23 07:06:54;;;;;;;1999.90;999.90;;;;;;;28.02;69.91;97723.50;4990945;28;20035;-74
2023/06/23 07:09:19;;;;;;;1999.90;999.90;;;;;;;28.13;68.28;97725.00;4990638;28;20026;-75
2023/06/23 07:11:49;;;;;;;1999.90;999.90;;;;;;;28.49;66.35;97733.88;4957062;28;20031;-73
2023/06/23 07:14:15;;;;;;;1999.90;999.90;;;;;;;28.73;64.18;97734.84;4990435;28;20035;-74
2023/06/23 07:16:40;;;;;;;1999.90;999.90;;;;;;;27.95;67.04;97712.28;4990522;28;20061;-76
2023/06/23 07:19:06;;;;;;;1999.90;999.90;;;;;;;28.65;64.21;97727.69;4990581;28;20026;-75
2023/06/23 07:21:32;;;;;;;1999.90;999.90;;;;;;;28.66;66.87;97721.63;4991284;28;20027;-74
2023/06/23 07:23:57;;;;;;;1999.90;999.90;;;;;;;28.59;65.83;97723.72;4975670;28;20030;-74
2023/06/23 07:26:23;;;;;;;1999.90;999.90;;;;;;;28.60;66.33;97712.03;4980232;28;20045;-75
2023/06/23 07:28:48;;;;;;;1999.90;999.90;;;;;;;28.88;66.25;97724.22;4997697;28;20034;-74
2023/06/23 07:31:14;;;;;;;1999.90;999.90;;;;;;;29.40;64.77;97725.50;4993732;28;20304;-75
2023/06/23 07:33:41;;;;;;;1999.90;999.90;;;;;;;29.64;61.54;97731.97;4993780;28;20034;-74
2023/06/23 07:36:06;;;;;;;1999.90;999.90;;;;;;;29.95;59.22;97727.06;4976590;28;20031;-74
2023/06/23 07:38:31;;;;;;;1999.90;999.90;;;;;;;29.59;61.15;97727.63;4993669;28;20037;-74
2023/06/23 07:40:57;;;;;;;1999.90;999.90;;;;;;;28.98;63.49;97738.13;4993790;28;20498;-74
2023/06/23 07:43:22;;;;;;;1999.90;999.90;;;;;;;28.99;62.39;97730.50;4993592;28;20042;-73
2023/06/23 07:45:48;;;;;;;1999.90;999.90;;;;;;;29.44;62.40;97736.72;4993415;28;20030;-74
2023/06/23 07:48:13;;;;;;;1999.90;999.90;;;;;;;29.72;60.96;97728.63;4993699;28;20042;-74
2023/06/23 07:50:38;;;;;;;1999.90;999.90;;;;;;;29.51;61.06;97740.22;4976303;28;20322;-74
2023/06/23 07:53:04;;;;;;;1999.90;999.90;;;;;;;30.37;58.82;97742.44;4995968;28;20037;-74
2023/06/23 07:55:29;;;;;;;1999.90;999.90;;;;;;;30.50;56.16;97741.41;4978531;28;20268;-74
2023/06/23 07:57:54;;;;;;;1999.90;999.90;;;;;;;31.00;54.93;97744.06;4993978;28;20522;-75
2023/06/23 08:00:20;;;;;;;1999.90;999.90;;;;;;;33.22;47.27;97742.47;4993051;28;20319;-73
2023/06/23 08:02:46;;;;;;;1999.90;999.90;;;;;;;33.93;45.63;97752.41;4993140;28;20025;-73
2023/06/23 08:05:11;;;;;;;1999.90;999.90;;;;;;;33.49;48.32;97745.69;4993046;28;20030;-73
2023/06/23 08:07:36;;;;;;;1999.90;999.90;;;;;;;35.34;43.12;97750.22;4971735;28;20331;-72
2023/06/23 08:10:02;;;;;;;1999.90;999.90;;;;;;;35.16;42.28;97757.84;4990172;28;20049;-73
2023/06/23 08:12:28;;;;;;;1999.90;999.90;;;;;;;33.25;47.35;97752.94;4992529;28;20539;-73
2023/06/23 08:14:53;;;;;;;1999.90;999.90;;;;;;;33.90;46.69;97756.94;5002611;28;20027;-74
2023/06/23 08:17:18;;;;;;;1999.90;999.90;;;;;;;33.85;46.26;97757.53;4992785;28;20084;-73
2023/06/23 08:19:44;;;;;;;1999.90;999.90;;;;;;;34.30;45.16;97759.31;4992734;28;20309;-74
2023/06/23 08:22:09;;;;;;;1999.90;999.90;;;;;;;34.50;45.10;97762.66;4992605;28;20162;-72
2023/06/23 08:24:35;;;;;;;1999.90;999.90;;;;;;;34.59;44.22;97759.88;4992621;28;20080;-73
2023/06/23 08:27:01;;;;;;;1999.90;999.90;;;;;;;35.31;41.99;97754.00;5000792;28;20038;-74
2023/06/23 08:29:26;;;;;;;1999.90;999.90;;;;;;;35.80;40.44;97751.28;4992066;28;20026;-73
2023/06/23 08:31:52;;;;;;;1999.90;999.90;;;;;;;35.49;41.66;97745.56;4992141;28;20038;-74
2023/06/23 08:34:18;;;;;;;1999.90;999.90;;;;;;;35.56;41.02;97744.47;4974427;28;20018;-74
2023/06/23 08:36:44;;;;;;;1999.90;999.90;;;;;;;35.15;41.71;97736.38;4974064;28;20073;-73
2023/06/23 08:39:09;;;;;;;1999.90;999.90;;;;;;;34.78;42.73;97729.59;4992410;28;20034;-73
2023/06/23 08:41:41;;;;;;;1999.90;999.90;;;;;;;36.36;39.52;97727.38;4992703;28;20049;-73
2023/06/23 08:44:06;;;;;;;1999.90;999.90;;;;;;;35.88;39.00;97728.97;4975166;28;20587;-73
2023/06/23 08:46:34;;;;;;;1999.90;999.90;;;;;;;35.19;41.70;97728.47;4993008;28;20031;-72
2023/06/23 08:49:06;;;;;;;1999.90;999.90;;;;;;;35.44;40.91;97723.41;5004654;28;20032;-73
2023/06/23 08:51:33;;;;;;;1999.90;999.90;;;;;;;35.52;40.31;97728.81;4997448;28;20033;-72
2023/06/23 08:53:58;;;;;;;1999.90;999.90;;;;;;;36.37;38.45;97721.19;4974214;28;20030;-73
2023/06/23 08:56:25;;;;;;;1999.90;999.90;;;;;;;36.81;37.86;97715.22;4974247;28;20161;-72
2023/06/23 08:58:51;;;;;;;1999.90;999.90;;;;;;;36.52;37.37;97709.97;4973858;28;20396;-73
2023/06/23 09:01:16;;;;;;;1999.90;999.90;;;;;;;35.65;39.03;97704.69;4974884;28;20030;-72
2023/06/23 09:03:41;;;;;;;1999.90;999.90;;;;;;;35.06;40.16;97696.44;4978120;28;20687;-73
2023/06/23 09:06:07;;;;;;;1999.90;999.90;;;;;;;34.07;42.22;97711.38;4991689;28;20114;-72
2023/06/23 09:08:34;;;;;;;1999.90;999.90;;;;;;;34.38;41.74;97707.47;4980944;28;20030;-73
2023/06/23 09:11:02;;;;;;;1999.90;999.90;;;;;;;36.71;37.74;97723.00;4991543;28;20392;-73
2023/06/23 09:13:33;;;;;;;1999.90;999.90;;;;;;;37.87;34.56;97733.84;4991608;28;20038;-75
2023/06/23 09:16:00;;;;;;;1999.90;999.90;;;;;;;38.85;32.90;97732.91;4991582;28;20033;-74
2023/06/23 09:18:25;;;;;;;1999.90;999.90;;;;;;;38.71;32.36;97725.06;4974022;28;20472;-73
2023/06/23 09:20:52;;;;;;;1999.90;999.90;;;;;;;39.76;31.15;97728.28;4991213;28;20049;-73
2023/06/23 09:23:20;;;;;;;1999.90;999.90;;;;;;;39.19;32.59;97722.09;4991062;28;20101;-73
2023/06/23 09:25:49;;;;;;;1999.90;999.90;;;;;;;39.54;31.08;97735.22;4987858;28;20034;-75
2023/06/23 09:28:42;;;;;;;1999.90;999.90;;;;;;;39.97;30.73;97735.69;4990880;28;20022;-75
2023/06/23 09:31:14;;;;;;;1999.90;999.90;;;;;;;38.83;31.79;97729.75;4972907;28;20034;-73
2023/06/23 09:33:50;;;;;;;1999.90;999.90;;;;;;;38.46;32.30;97717.00;4973495;28;20052;-73
2023/06/23 09:36:16;;;;;;;1999.90;999.90;;;;;;;37.49;34.08;97719.41;4975890;28;20042;-72
2023/06/23 09:38:42;;;;;;;1999.90;999.90;;;;;;;38.62;32.25;97707.97;4994213;28;20030;-74
2023/06/23 09:41:11;;;;;;;1999.90;999.90;;;;;;;39.81;31.10;97705.47;4999548;28;20034;-74
2023/06/23 09:43:42;;;;;;;1999.90;999.90;;;;;;;40.43;30.02;97698.53;4995281;28;20022;-72
2023/06/23 09:46:08;;;;;;;1999.90;999.90;;;;;;;40.95;29.41;97700.22;4990275;28;20689;-73
2023/06/23 09:48:34;;;;;;;1999.90;999.90;;;;;;;39.60;30.77;97689.47;4989898;28;20033;-72
2023/06/23 09:51:01;;;;;;;1999.90;999.90;;;;;;;40.06;30.12;97690.47;4972375;28;20388;-73
2023/06/23 09:53:30;;;;;;;1999.90;999.90;;;;;;;38.16;32.31;97692.38;4989898;28;20030;-72
2023/06/23 09:55:55;;;;;;;1999.90;999.90;;;;;;;37.28;34.72;97686.91;4989760;28;20022;-72
2023/06/23 09:58:21;;;;;;;1999.90;999.90;;;;;;;39.69;30.07;97686.53;4990092;28;20034;-73
2023/06/23 10:00:46;;;;;;;1999.90;999.90;;;;;;;40.25;28.90;97693.09;4972546;28;20291;-73
2023/06/23 10:03:12;;;;;;;1999.90;999.90;;;;;;;39.27;30.29;97697.53;4983410;28;20023;-73
2023/06/23 10:05:38;;;;;;;1999.90;999.90;;;;;;;39.25;30.69;97694.38;4985415;28;20030;-73
2023/06/23 10:08:08;;;;;;;1999.90;999.90;;;;;;;38.93;31.00;97687.53;4990242;28;20368;-72
2023/06/23 10:10:33;;;;;;;1999.90;999.90;;;;;;;38.14;30.97;97683.50;4989702;28;20050;-73
2023/06/23 10:12:59;;;;;;;1999.90;999.90;;;;;;;38.82;29.67;97679.50;4989687;28;20069;-72
2023/06/23 10:15:25;;;;;;;1999.90;999.90;;;;;;;39.38;28.16;97683.41;4972058;28;20402;-73
2023/06/23 10:17:52;;;;;;;1999.90;999.90;;;;;;;39.45;27.78;97689.50;4971848;28;20026;-74
2023/06/23 10:20:17;;;;;;;1999.90;999.90;;;;;;;40.10;26.55;97690.25;4989648;28;20026;-74
2023/06/23 10:22:44;;;;;;;1999.90;999.90;;;;;;;40.37;26.12;97689.88;4971790;28;20045;-73
2023/06/23 10:25:11;;;;;;;1999.90;999.90;;;;;;;39.40;27.02;97680.81;4970218;28;20034;-73
2023/06/23 10:27:39;;;;;;;1999.90;999.90;;;;;;;39.98;25.81;97689.28;4972129;28;20019;-73
2023/06/23 10:30:06;;;;;;;1999.90;999.90;;;;;;;40.10;25.40;97682.47;4989454;28;20053;-78
2023/06/23 10:32:36;;;;;;;1999.90;999.90;;;;;;;39.60;25.83;97675.13;4976136;28;20072;-77
2023/06/23 10:35:08;;;;;;;1999.90;999.90;;;;;;;39.17;27.69;97661.66;4971865;28;20089;-75
2023/06/23 10:37:34;;;;;;;1999.90;999.90;;;;;;;38.01;27.52;97658.84;4950304;28;1149326;-77
2023/06/23 10:40:04;;;;;;;1999.90;999.90;;;;;;;36.84;29.86;97652.28;4972884;28;20652;-76
2023/06/23 10:42:34;;;;;;;1999.90;999.90;;;;;;;35.81;32.84;97638.91;4990262;28;20046;-74
2023/06/23 10:45:00;;;;;;;1999.90;999.90;;;;;;;35.18;33.83;97630.94;4976140;28;20042;-77
2023/06/23 10:47:26;;;;;;;1999.90;999.90;;;;;;;34.25;35.64;97620.66;4981784;28;20057;-74
2023/06/23 10:49:52;;;;;;;1999.90;999.90;;;;;;;33.73;36.25;97602.22;4990441;28;20108;-76
2023/06/23 10:52:18;;;;;;;1999.90;999.90;;;;;;;33.78;36.86;97615.81;4991079;28;20027;-77
2023/06/23 10:54:43;;;;;;;1999.90;999.90;;;;;;;34.04;36.59;97595.84;4975091;28;20030;-77